createdAt,value
2022-11-01T00:01:19.617Z,19.75
2022-11-01T00:03:47.402Z,20.23
2022-11-01T00:06:17.715Z,17.73
2022-11-01T00:08:48.355Z,16.58
2022-11-01T00:11:18.239Z,17.13
2022-11-01T00:13:49.619Z,18.88
2022-11-01T00:16:18.692Z,18.27
2022-11-01T00:18:45.913Z,16.52
2022-11-01T00:21:13.723Z,17.67
2022-11-01T00:23:41.065Z,21.25
2022-11-01T00:26:08.300Z,16.50
2022-11-01T00:28:35.459Z,18.38
2022-11-01T00:31:02.219Z,14.55
2022-11-01T00:33:28.874Z,17.65
2022-11-01T00:36:00.943Z,18.67
2022-11-01T00:38:28.158Z,13.88
2022-11-01T00:40:55.244Z,16.13
2022-11-01T00:43:22.391Z,15.75
2022-11-01T00:45:50.477Z,16.70
2022-11-01T00:48:17.568Z,10.88
2022-11-01T00:50:44.203Z,12.27
2022-11-01T00:53:12.596Z,14.82
2022-11-01T00:55:41.888Z,16.48
2022-11-01T00:58:09.088Z,13.20
2022-11-01T01:00:36.532Z,12.32
2022-11-01T01:03:05.115Z,12.13
2022-11-01T01:05:33.394Z,12.43
2022-11-01T01:08:00.022Z,13.27
2022-11-01T01:10:26.697Z,13.75
2022-11-01T01:12:53.332Z,15.38
2022-11-01T01:15:19.981Z,14.77
2022-11-01T01:17:46.623Z,15.13
2022-11-01T01:20:14.310Z,15.15
2022-11-01T01:22:41.788Z,16.15
2022-11-01T01:25:09.586Z,15.10
2022-11-01T01:27:36.533Z,16.58
2022-11-01T01:30:07.869Z,14.85
2022-11-01T01:35:01.002Z,13.85
2022-11-01T01:37:27.775Z,12.50
2022-11-01T01:39:54.355Z,12.02
2022-11-01T01:42:31.790Z,13.55
2022-11-01T01:44:58.287Z,12.77
2022-11-01T01:47:30.456Z,13.20
2022-11-01T01:50:11.993Z,18.67
2022-11-01T01:52:43.885Z,15.57
2022-11-01T01:55:12.337Z,17.42
2022-11-01T01:57:40.588Z,17.20
2022-11-01T02:00:07.989Z,10.93
2022-11-01T02:02:37.558Z,13.63
2022-11-01T02:05:29.219Z,11.65
2022-11-01T02:07:56.549Z,11.55
2022-11-01T02:10:24.085Z,10.35
2022-11-01T02:12:51.061Z,8.60
2022-11-01T03:03:08.354Z,41.95
2022-11-01T03:05:54.954Z,41.88
2022-11-01T03:08:28.936Z,28.73
2022-11-01T03:11:16.598Z,49.13
2022-11-01T03:13:58.925Z,37.55
2022-11-01T03:16:31.181Z,43.95
2022-11-01T03:19:06.548Z,35.47
2022-11-01T03:21:40.605Z,38.97
2022-11-01T03:24:20.708Z,43.88
2022-11-01T03:26:54.360Z,47.50
2022-11-01T03:29:22.821Z,42.47
2022-11-01T03:31:51.169Z,48.05
2022-11-01T03:34:19.891Z,42.38
2022-11-01T03:36:54.058Z,43.42
2022-11-01T03:39:27.078Z,45.72
2022-11-01T03:41:59.171Z,40.88
2022-11-01T03:44:28.720Z,43.67
2022-11-01T03:46:55.190Z,42.72
2022-11-01T03:49:21.692Z,38.92
2022-11-01T03:51:48.516Z,39.15
2022-11-01T03:54:15.014Z,32.38
2022-11-01T03:56:41.575Z,23.05
2022-11-01T03:59:09.841Z,33.60
2022-11-01T04:01:37.017Z,36.42
2022-11-01T04:04:03.646Z,27.00
2022-11-01T04:06:30.248Z,27.85
2022-11-01T04:08:56.773Z,24.67
2022-11-01T04:11:23.374Z,26.40
2022-11-01T04:13:49.846Z,32.50
2022-11-01T04:16:34.779Z,29.13
2022-11-01T04:19:20.494Z,23.60
2022-11-01T04:21:47.117Z,27.45
2022-11-01T04:24:20.752Z,28.08
2022-11-01T04:26:47.760Z,21.23
2022-11-01T04:29:14.198Z,23.00
2022-11-01T04:31:40.688Z,29.13
2022-11-01T04:34:07.135Z,22.38
2022-11-01T04:36:33.750Z,25.70
2022-11-01T04:39:00.198Z,21.02
2022-11-01T04:41:28.808Z,24.10
2022-11-01T04:43:59.159Z,27.17
2022-11-01T04:46:25.677Z,23.73
2022-11-01T04:48:52.100Z,18.50
2022-11-01T04:51:18.575Z,22.92
2022-11-01T04:53:45.300Z,25.23
2022-11-01T04:56:13.624Z,25.38
2022-11-01T04:58:43.222Z,25.17
2022-11-01T05:01:14.462Z,25.52
2022-11-01T05:03:41.257Z,19.15
2022-11-01T05:06:07.836Z,22.85
2022-11-01T05:08:34.330Z,25.05
2022-11-01T05:11:00.911Z,22.38
2022-11-01T05:13:27.400Z,17.58
2022-11-01T05:16:17.797Z,21.15
2022-11-01T05:18:42.713Z,19.63
2022-11-01T05:21:09.169Z,18.60
2022-11-01T05:23:35.629Z,26.88
2022-11-01T05:26:02.069Z,20.60
2022-11-01T05:28:28.504Z,20.23
2022-11-01T05:30:54.937Z,21.05
2022-11-01T05:33:21.416Z,21.40
2022-11-01T05:35:47.856Z,15.02
2022-11-01T05:38:14.366Z,15.70
2022-11-01T05:40:40.797Z,19.75
2022-11-01T05:43:07.222Z,17.45
2022-11-01T05:45:33.647Z,18.90
2022-11-01T05:48:04.413Z,21.25
2022-11-01T05:50:30.979Z,16.02
2022-11-01T05:53:07.879Z,16.88
2022-11-01T05:55:35.324Z,14.63
2022-11-01T05:58:01.950Z,20.30
2022-11-01T06:00:28.493Z,17.73
2022-11-01T06:02:58.001Z,15.57
2022-11-01T06:05:25.215Z,12.35
2022-11-01T06:07:51.671Z,15.75
2022-11-01T06:10:18.274Z,19.65
2022-11-01T06:12:44.715Z,16.02
2022-11-01T06:15:11.422Z,15.23
2022-11-01T06:17:37.862Z,18.83
2022-11-01T06:20:04.670Z,16.27
2022-11-01T06:22:31.290Z,13.95
2022-11-01T06:24:57.803Z,17.65
2022-11-01T06:27:24.231Z,16.98
2022-11-01T06:29:50.680Z,20.27
2022-11-01T06:32:17.139Z,18.30
2022-11-01T06:34:44.980Z,17.55
2022-11-01T06:37:11.755Z,15.77
2022-11-01T06:39:38.222Z,20.08
2022-11-01T06:42:04.930Z,14.75
2022-11-01T06:44:31.575Z,14.25
2022-11-01T06:46:58.059Z,16.52
2022-11-01T06:49:25.002Z,17.90
2022-11-01T06:51:51.461Z,20.23
2022-11-01T06:54:17.962Z,20.77
2022-11-01T06:56:47.621Z,19.33
2022-11-01T06:59:16.450Z,20.73
2022-11-01T07:01:44.325Z,15.40
2022-11-01T07:09:08.762Z,17.58
2022-11-01T07:11:35.241Z,21.05
2022-11-01T07:14:01.732Z,19.70
2022-11-01T07:16:28.405Z,15.20
2022-11-01T07:18:55.329Z,22.00
2022-11-01T07:21:21.813Z,23.58
2022-11-01T07:23:48.403Z,20.00
2022-11-01T07:26:14.967Z,22.60
2022-11-01T07:28:41.457Z,19.27
2022-11-01T07:31:08.056Z,17.55
2022-11-01T07:33:34.976Z,20.52
2022-11-01T07:36:02.318Z,20.05
2022-11-01T07:38:29.000Z,13.13
2022-11-01T07:40:55.441Z,17.80
2022-11-01T07:43:22.193Z,17.80
2022-11-01T07:45:49.220Z,15.88
2022-11-01T07:48:18.463Z,18.17
2022-11-01T07:50:45.872Z,20.08
2022-11-01T07:53:13.748Z,17.55
2022-11-01T07:55:40.957Z,21.48
2022-11-01T07:58:08.375Z,20.13
2022-11-01T08:03:15.595Z,21.27
2022-11-01T08:05:44.653Z,18.17
2022-11-01T08:08:11.163Z,17.98
2022-11-01T08:10:38.641Z,22.23
2022-11-01T08:13:08.143Z,19.75
2022-11-01T08:15:35.302Z,22.48
2022-11-01T08:18:02.257Z,19.48
2022-11-01T08:20:30.088Z,20.45
2022-11-01T08:22:57.158Z,18.83
2022-11-01T08:25:24.479Z,21.90
2022-11-01T08:27:51.401Z,25.33
2022-11-01T08:30:19.304Z,23.65
2022-11-01T08:32:46.248Z,22.75
2022-11-01T08:35:13.328Z,17.00
2022-11-01T08:37:50.558Z,24.13
2022-11-01T08:40:17.670Z,18.35
2022-11-01T08:42:44.208Z,20.00
2022-11-01T08:45:11.891Z,23.38
2022-11-01T08:47:39.713Z,21.83
2022-11-01T08:50:10.960Z,23.45
2022-11-01T08:52:37.661Z,21.63
2022-11-01T08:55:04.488Z,21.13
2022-11-01T08:57:31.353Z,15.65
2022-11-01T08:59:57.822Z,22.05
2022-11-01T09:02:39.402Z,21.08
2022-11-01T09:05:07.713Z,26.02
2022-11-01T09:07:35.902Z,22.92
2022-11-01T09:10:03.158Z,24.50
2022-11-01T09:12:29.795Z,22.73
2022-11-01T09:14:56.552Z,21.98
2022-11-01T09:17:23.357Z,19.77
2022-11-01T09:19:50.124Z,26.77
2022-11-01T09:22:16.713Z,21.83
2022-11-01T09:24:43.233Z,18.98
2022-11-01T09:27:10.092Z,22.08
2022-11-01T09:29:36.940Z,20.83
2022-11-01T09:32:04.331Z,21.10
2022-11-01T09:34:31.010Z,18.98
2022-11-01T09:36:57.922Z,17.75
2022-11-01T09:39:24.488Z,21.13
2022-11-01T09:42:02.406Z,20.25
2022-11-01T09:44:34.156Z,21.40
2022-11-01T09:47:22.170Z,20.00
2022-11-01T09:49:55.296Z,20.10
2022-11-01T09:52:25.528Z,17.25
2022-11-01T09:54:52.450Z,22.92
2022-11-01T09:57:35.528Z,19.05
2022-11-01T10:00:21.864Z,20.48
2022-11-01T10:03:33.594Z,17.65
2022-11-01T10:06:16.719Z,21.95
2022-11-01T10:09:01.214Z,20.02
2022-11-01T10:11:56.855Z,18.33
2022-11-01T10:14:40.463Z,20.70
2022-11-01T10:17:15.556Z,18.92
2022-11-01T10:19:47.619Z,17.73
2022-11-01T10:22:19.945Z,19.35
2022-11-01T10:24:57.843Z,21.60
2022-11-01T10:27:37.448Z,19.55
2022-11-01T10:30:13.104Z,17.73
2022-11-01T10:32:46.824Z,17.35
2022-11-01T10:35:25.377Z,18.63
2022-11-01T10:38:11.413Z,20.60
2022-11-01T10:40:59.530Z,22.20
2022-11-01T10:43:26.607Z,21.55
2022-11-01T10:45:55.849Z,25.73
2022-11-01T10:48:43.955Z,19.20
2022-11-01T10:51:14.605Z,18.60
2022-11-01T10:53:46.740Z,19.42
2022-11-01T10:56:28.152Z,16.58
2022-11-01T10:59:34.558Z,8.77
2022-11-01T11:02:24.054Z,8.90
2022-11-01T11:04:51.115Z,8.30
2022-11-01T11:07:24.234Z,14.70
2022-11-01T11:09:53.680Z,10.00
2022-11-01T11:13:38.675Z,10.38
2022-11-01T11:16:11.736Z,8.55
2022-11-01T11:22:50.572Z,7.88
2022-11-01T11:26:04.560Z,7.88
2022-11-01T11:31:00.934Z,8.70
2022-11-01T11:32:21.049Z,6.55
2022-11-01T11:35:13.893Z,10.82
2022-11-01T11:38:02.497Z,6.32
2022-11-01T11:40:42.818Z,8.50
2022-11-01T11:43:18.933Z,7.75
2022-11-01T11:46:28.205Z,7.53
2022-11-01T11:49:07.217Z,6.55
2022-11-01T11:51:40.818Z,5.20
2022-11-01T11:54:39.260Z,7.22
2022-11-01T11:57:36.767Z,6.32
2022-11-01T12:00:08.387Z,10.13
2022-11-01T12:02:42.029Z,8.75
2022-11-01T12:05:17.624Z,8.90
2022-11-01T12:07:48.885Z,7.03
2022-11-01T12:14:02.729Z,4.88
2022-11-01T12:16:40.436Z,8.10
2022-11-01T12:19:32.851Z,7.82
2022-11-01T12:22:14.913Z,6.53
2022-11-01T12:25:11.192Z,6.18
2022-11-01T12:27:51.977Z,7.80
2022-11-01T12:30:55.844Z,5.22
2022-11-01T12:37:04.914Z,6.28
2022-11-01T12:44:16.249Z,6.22
2022-11-01T14:41:36.140Z,4.15
2022-11-01T15:07:36.898Z,5.00
2022-11-01T15:10:14.401Z,5.60
2022-11-01T15:12:54.157Z,6.97
2022-11-01T15:15:24.150Z,5.70
2022-11-01T15:17:56.955Z,7.07
2022-11-01T15:20:26.611Z,6.18
2022-11-01T15:22:55.348Z,7.25
2022-11-01T15:25:26.625Z,6.50
2022-11-01T15:27:55.428Z,7.82
2022-11-01T15:30:26.311Z,14.32
2022-11-01T15:33:13.953Z,11.02
2022-11-01T15:35:40.786Z,10.10
2022-11-01T15:38:20.791Z,6.57
2022-11-01T15:40:48.415Z,10.85
2022-11-01T15:43:25.297Z,5.10
2022-11-01T15:48:24.342Z,7.15
2022-11-01T15:50:55.508Z,5.45
2022-11-01T15:56:02.112Z,6.97
2022-11-01T15:58:44.106Z,5.95
2022-11-01T16:01:17.876Z,7.13
2022-11-01T16:03:52.210Z,11.15
2022-11-01T16:06:25.393Z,8.60
2022-11-01T16:09:00.156Z,7.20
2022-11-01T16:11:30.927Z,7.75
2022-11-01T16:14:18.293Z,8.20
2022-11-01T16:16:58.070Z,10.93
2022-11-01T16:19:40.025Z,19.75
2022-11-01T16:31:22.941Z,6.13
2022-11-01T16:33:50.255Z,7.90
2022-11-01T16:36:19.560Z,6.15
2022-11-01T16:38:53.819Z,6.80
2022-11-01T16:41:26.762Z,7.40
2022-11-01T16:44:14.205Z,7.55
2022-11-01T16:46:40.702Z,6.00
2022-11-01T16:49:25.352Z,4.93
2022-11-01T16:51:53.926Z,8.98
2022-11-01T16:54:20.348Z,7.32
2022-11-01T16:56:58.670Z,9.25
2022-11-01T16:59:28.060Z,7.30
2022-11-01T17:01:58.339Z,7.65
2022-11-01T17:04:29.166Z,6.70
2022-11-01T17:06:58.281Z,7.20
2022-11-01T17:09:29.507Z,7.95
2022-11-01T17:11:56.216Z,7.50
2022-11-01T17:14:22.717Z,9.80
2022-11-01T17:16:51.120Z,8.88
2022-11-01T17:19:22.777Z,11.02
2022-11-01T17:21:51.904Z,12.77
2022-11-01T17:24:21.173Z,13.52
2022-11-01T17:26:49.311Z,14.75
2022-11-01T17:29:16.113Z,18.38
2022-11-01T17:31:42.854Z,26.10
2022-11-01T17:34:09.329Z,16.58
2022-11-01T17:36:36.426Z,23.50
2022-11-01T17:39:04.435Z,18.40
2022-11-01T17:41:30.941Z,21.08
2022-11-01T17:43:57.392Z,26.60
2022-11-01T17:46:25.929Z,14.27
2022-11-01T17:48:52.400Z,24.35
2022-11-01T17:51:18.980Z,18.60
2022-11-01T17:53:45.753Z,22.10
2022-11-01T17:56:12.209Z,23.75
2022-11-01T17:58:38.888Z,20.38
2022-11-01T18:01:07.953Z,11.25
2022-11-01T18:03:34.591Z,19.45
2022-11-01T18:06:01.111Z,23.58
2022-11-01T18:08:30.721Z,16.88
2022-11-01T18:11:12.934Z,22.95
2022-11-01T18:13:55.166Z,22.52
2022-11-01T18:16:28.010Z,18.23
2022-11-01T18:19:39.201Z,19.90
2022-11-01T18:22:14.705Z,19.88
2022-11-01T18:24:46.224Z,14.02
2022-11-01T18:27:13.488Z,22.05
2022-11-01T18:29:42.015Z,29.02
2022-11-01T18:32:38.126Z,14.35
2022-11-01T18:35:32.511Z,16.45
2022-11-01T18:38:13.418Z,25.10
2022-11-01T18:41:01.033Z,19.35
2022-11-01T18:43:31.739Z,20.05
2022-11-01T18:46:23.365Z,19.75
2022-11-01T18:48:44.906Z,27.08
2022-11-01T18:51:28.289Z,27.65
2022-11-01T18:54:30.178Z,19.40
2022-11-01T18:56:59.760Z,25.52
2022-11-01T18:59:35.521Z,26.35
2022-11-01T19:02:10.999Z,31.90
2022-11-01T19:04:40.936Z,25.70
2022-11-01T19:07:12.971Z,29.23
2022-11-01T19:09:46.776Z,19.40
2022-11-01T19:12:23.941Z,25.40
2022-11-01T19:14:58.735Z,25.85
2022-11-01T19:17:27.315Z,23.33
2022-11-01T19:19:54.676Z,18.80
2022-11-01T19:22:31.556Z,21.95
2022-11-01T19:24:59.166Z,14.18
2022-11-01T19:27:25.711Z,21.73
2022-11-01T19:29:57.749Z,18.77
2022-11-01T19:32:25.297Z,35.55
2022-11-01T19:34:53.127Z,24.17
2022-11-01T19:37:25.177Z,16.40
2022-11-01T19:39:52.488Z,27.50
2022-11-01T19:42:31.387Z,17.50
2022-11-01T19:45:04.816Z,31.40
2022-11-01T19:47:46.066Z,16.52
2022-11-01T19:50:35.880Z,30.45
2022-11-01T19:53:02.605Z,24.35
2022-11-01T19:55:47.696Z,25.08
2022-11-01T19:58:25.061Z,25.33
2022-11-01T20:01:06.519Z,26.05
2022-11-01T20:03:35.955Z,27.13
2022-11-01T20:06:02.393Z,20.50
2022-11-01T20:08:33.520Z,25.42
2022-11-01T20:11:00.196Z,25.08
2022-11-01T20:13:26.634Z,18.15
2022-11-01T20:15:53.128Z,25.48
2022-11-01T20:18:19.607Z,27.13
2022-11-01T20:20:46.017Z,20.90
2022-11-01T20:23:25.895Z,18.75
2022-11-01T20:25:53.411Z,18.20
2022-11-01T20:28:19.859Z,29.80
2022-11-01T20:30:46.400Z,22.08
2022-11-01T20:33:13.297Z,19.10
2022-11-01T20:35:39.747Z,21.25
2022-11-01T20:38:06.287Z,17.02
2022-11-01T20:40:32.773Z,24.98
2022-11-01T20:42:59.201Z,27.88
2022-11-01T20:45:25.695Z,29.73
2022-11-01T20:47:52.261Z,27.13
2022-11-01T20:50:19.098Z,27.08
2022-11-01T20:52:45.671Z,19.42
2022-11-01T20:55:13.016Z,20.30
2022-11-01T20:57:39.524Z,25.23
2022-11-01T21:00:09.913Z,22.85
2022-11-01T21:02:36.473Z,21.13
2022-11-01T21:05:16.201Z,21.08
2022-11-01T21:07:46.882Z,21.10
2022-11-01T21:10:31.597Z,18.10
2022-11-01T21:13:00.376Z,19.30
2022-11-01T21:15:31.894Z,19.60
2022-11-01T21:18:07.102Z,18.60
2022-11-01T21:20:39.613Z,17.17
2022-11-01T21:23:21.487Z,17.58
2022-11-01T21:25:59.905Z,16.80
2022-11-01T21:28:30.908Z,17.15
2022-11-01T21:31:19.277Z,15.77
2022-11-01T21:33:53.813Z,14.95
2022-11-01T21:36:20.170Z,16.42
2022-11-01T21:38:47.795Z,18.65
2022-11-01T21:41:52.550Z,18.40
2022-11-01T21:44:22.206Z,12.95
2022-11-01T21:46:51.023Z,10.98
2022-11-01T21:49:29.318Z,11.93
2022-11-01T21:51:58.884Z,11.02
2022-11-01T21:54:26.628Z,8.93
2022-11-01T21:56:53.418Z,7.00
2022-11-01T21:59:19.941Z,4.95
2022-11-01T22:01:48.241Z,3.88
2022-11-01T22:04:15.894Z,4.07
2022-11-01T22:06:43.980Z,7.35
2022-11-01T22:09:10.833Z,7.22
2022-11-01T22:11:37.706Z,6.15
2022-11-01T22:14:04.397Z,4.13
2022-11-01T22:16:31.316Z,5.22
2022-11-01T22:18:57.782Z,10.52
2022-11-01T22:21:24.594Z,6.75
2022-11-01T22:23:51.106Z,7.13
2022-11-01T22:26:17.848Z,8.48
2022-11-01T22:28:44.311Z,6.15
2022-11-01T22:31:10.877Z,7.18
2022-11-01T22:33:37.406Z,4.35
2022-11-01T22:36:05.006Z,5.70
2022-11-01T22:38:43.140Z,4.55
2022-11-01T22:41:33.249Z,5.60
2022-11-01T22:44:05.927Z,4.55
2022-11-01T22:46:58.178Z,4.40
2022-11-01T22:49:41.686Z,5.95
2022-11-01T22:52:31.979Z,8.85
2022-11-01T22:55:13.640Z,4.65
2022-11-01T22:57:46.025Z,8.60
2022-11-01T23:00:26.070Z,7.10
2022-11-01T23:02:58.512Z,6.07
2022-11-01T23:05:25.970Z,7.18
2022-11-01T23:07:57.976Z,4.20
2022-11-01T23:10:33.518Z,7.30
2022-11-01T23:13:21.724Z,6.38
2022-11-01T23:15:48.181Z,5.85
2022-11-01T23:18:27.692Z,4.97
2022-11-01T23:21:00.190Z,4.78
2022-11-01T23:23:26.927Z,4.95
2022-11-01T23:25:55.083Z,6.85
2022-11-01T23:28:23.146Z,6.55
2022-11-01T23:30:49.764Z,6.72
2022-11-01T23:33:18.836Z,4.05
2022-11-01T23:35:52.071Z,6.97
2022-11-01T23:38:31.232Z,4.03
2022-11-01T23:40:57.805Z,4.10
2022-11-01T23:43:40.030Z,5.97
2022-11-01T23:46:08.727Z,5.13
2022-11-01T23:48:41.512Z,5.07
2022-11-01T23:51:15.127Z,6.93
2022-11-01T23:53:43.003Z,8.98
2022-11-01T23:56:12.293Z,6.38
2022-11-01T23:58:38.857Z,7.63
